createdAt,value
2022-09-16T00:02:39.967Z,2.30
2022-09-16T00:05:26.432Z,3.58
2022-09-16T00:08:12.698Z,4.05
2022-09-16T00:11:02.828Z,3.10
2022-09-16T00:13:48.285Z,3.20
2022-09-16T00:16:34.017Z,2.35
2022-09-16T00:19:19.279Z,3.58
2022-09-16T00:22:04.736Z,2.30
2022-09-16T00:24:50.270Z,2.58
2022-09-16T00:27:35.730Z,2.05
2022-09-16T00:30:21.156Z,2.45
2022-09-16T00:33:06.680Z,3.35
2022-09-16T00:35:52.283Z,3.60
2022-09-16T00:38:38.618Z,2.95
2022-09-16T00:41:33.125Z,5.03
2022-09-16T00:44:56.311Z,4.78
2022-09-16T00:47:51.467Z,3.80
2022-09-16T00:50:51.154Z,3.90
2022-09-16T00:53:43.179Z,5.78
2022-09-16T00:56:31.204Z,2.60
2022-09-16T00:59:28.252Z,3.90
2022-09-16T01:02:18.107Z,3.10
2022-09-16T01:05:09.700Z,1.60
2022-09-16T01:07:55.359Z,2.17
2022-09-16T01:10:42.425Z,2.20
2022-09-16T01:13:27.729Z,1.88
2022-09-16T01:16:30.770Z,1.50
2022-09-16T01:19:39.502Z,3.35
2022-09-16T01:23:11.866Z,3.92
2022-09-16T01:26:28.290Z,2.42
2022-09-16T01:29:32.256Z,3.78
2022-09-16T01:32:47.169Z,3.40
2022-09-16T01:35:58.134Z,3.28
2022-09-16T01:39:17.426Z,2.55
2022-09-16T01:42:16.521Z,3.08
2022-09-16T01:45:36.161Z,3.08
2022-09-16T01:48:41.984Z,2.17
2022-09-16T01:51:43.828Z,2.55
2022-09-16T01:54:37.264Z,2.83
2022-09-16T01:58:03.761Z,1.60
2022-09-16T02:00:55.366Z,2.05
2022-09-16T02:03:44.493Z,3.77
2022-09-16T02:06:31.669Z,6.93
2022-09-16T02:09:23.456Z,3.00
2022-09-16T02:12:15.949Z,3.28
2022-09-16T02:15:07.008Z,7.55
2022-09-16T02:18:00.484Z,3.67
2022-09-16T02:20:47.860Z,5.25
2022-09-16T02:23:39.875Z,1.92
2022-09-16T02:26:29.984Z,2.55
2022-09-16T02:29:22.765Z,1.65
2022-09-16T02:34:55.674Z,1.83
2022-09-16T02:38:04.134Z,3.05
2022-09-16T02:41:14.477Z,2.55
2022-09-16T02:44:00.452Z,2.88
2022-09-16T02:46:55.481Z,2.25
2022-09-16T02:50:09.247Z,2.33
2022-09-16T02:53:04.180Z,3.67
2022-09-16T02:56:16.103Z,3.63
2022-09-16T02:59:02.983Z,5.40
2022-09-16T03:01:48.753Z,2.95
2022-09-16T03:04:34.934Z,3.70
2022-09-16T03:07:20.623Z,1.90
2022-09-16T03:10:06.360Z,1.67
2022-09-16T03:13:21.952Z,3.05
2022-09-16T03:16:23.042Z,3.15
2022-09-16T03:19:31.993Z,3.13
2022-09-16T03:22:29.173Z,3.92
2022-09-16T03:25:42.213Z,3.42
2022-09-16T03:29:00.194Z,3.72
2022-09-16T03:32:07.164Z,2.75
2022-09-16T03:35:02.041Z,2.58
2022-09-16T03:37:48.071Z,3.17
2022-09-16T03:40:34.289Z,3.60
2022-09-16T03:43:19.810Z,3.50
2022-09-16T03:46:14.848Z,2.00
2022-09-16T03:49:00.139Z,4.10
2022-09-16T03:51:45.336Z,3.47
2022-09-16T03:54:31.169Z,2.65
2022-09-16T03:57:16.274Z,5.85
2022-09-16T04:00:02.185Z,5.30
2022-09-16T04:02:58.786Z,3.55
2022-09-16T04:05:44.684Z,4.38
2022-09-16T04:08:30.233Z,2.85
2022-09-16T04:11:15.503Z,6.22
2022-09-16T04:14:01.037Z,3.00
2022-09-16T04:16:46.641Z,5.15
2022-09-16T04:19:32.992Z,5.07
2022-09-16T04:22:18.587Z,4.45
2022-09-16T04:25:04.540Z,3.35
2022-09-16T04:27:49.871Z,4.00
2022-09-16T04:30:36.525Z,3.65
2022-09-16T04:33:22.298Z,4.28
2022-09-16T04:36:09.289Z,3.95
2022-09-16T04:38:54.773Z,3.17
2022-09-16T04:41:40.197Z,3.25
2022-09-16T04:44:27.085Z,4.63
2022-09-16T04:47:12.364Z,3.97
2022-09-16T04:49:57.944Z,4.63
2022-09-16T04:52:42.954Z,3.42
2022-09-16T04:55:28.969Z,4.43
2022-09-16T04:58:15.205Z,3.95
2022-09-16T05:01:08.173Z,4.18
2022-09-16T05:03:56.209Z,3.90
2022-09-16T05:06:41.959Z,3.20
2022-09-16T05:09:27.437Z,2.10
2022-09-16T05:12:12.873Z,2.88
2022-09-16T05:14:58.072Z,2.88
2022-09-16T05:17:51.745Z,3.95
2022-09-16T05:20:38.758Z,3.60
2022-09-16T05:23:23.877Z,4.40
2022-09-16T05:26:12.270Z,3.47
2022-09-16T05:29:17.538Z,3.33
2022-09-16T05:32:02.734Z,3.80
2022-09-16T05:34:49.612Z,4.45
2022-09-16T05:37:35.180Z,2.63
2022-09-16T05:40:20.896Z,4.55
2022-09-16T05:43:06.208Z,3.55
2022-09-16T05:45:53.063Z,4.45
2022-09-16T05:48:38.449Z,4.35
2022-09-16T05:51:26.131Z,4.57
2022-09-16T05:54:12.679Z,4.93
2022-09-16T05:56:57.650Z,4.63
2022-09-16T05:59:43.124Z,4.10
2022-09-16T06:02:28.587Z,3.50
2022-09-16T06:05:14.089Z,3.35
2022-09-16T06:07:59.680Z,4.40
2022-09-16T06:10:45.180Z,2.60
2022-09-16T06:13:31.620Z,2.58
2022-09-16T06:16:17.050Z,3.40
2022-09-16T06:19:05.240Z,2.83
2022-09-16T06:21:50.832Z,4.22
2022-09-16T06:24:36.412Z,4.05
2022-09-16T06:27:21.641Z,3.92
2022-09-16T06:30:07.624Z,2.50
2022-09-16T06:32:53.068Z,4.75
2022-09-16T06:35:38.202Z,3.55
2022-09-16T06:38:23.920Z,4.40
2022-09-16T06:41:11.161Z,4.30
2022-09-16T06:43:56.337Z,5.15
2022-09-16T06:46:41.848Z,3.50
2022-09-16T06:49:27.430Z,4.63
2022-09-16T06:52:12.909Z,3.47
2022-09-16T06:54:58.433Z,4.20
2022-09-16T06:57:43.901Z,4.82
2022-09-16T07:00:29.245Z,3.28
2022-09-16T07:03:14.770Z,2.95
2022-09-16T07:06:04.374Z,2.78
2022-09-16T07:08:49.687Z,5.47
2022-09-16T07:11:35.091Z,7.22
2022-09-16T07:14:20.050Z,4.82
2022-09-16T07:17:05.555Z,4.53
2022-09-16T07:19:50.724Z,2.10
2022-09-16T07:22:36.303Z,2.45
2022-09-16T07:25:21.999Z,3.65
2022-09-16T07:28:07.178Z,4.43
2022-09-16T07:30:53.136Z,3.20
2022-09-16T07:33:41.071Z,2.45
2022-09-16T07:36:29.978Z,3.42
2022-09-16T07:39:17.884Z,3.10
2022-09-16T07:42:06.193Z,4.05
2022-09-16T07:44:51.678Z,2.58
2022-09-16T07:47:37.030Z,1.77
2022-09-16T07:50:22.603Z,2.38
2022-09-16T07:53:08.033Z,3.30
2022-09-16T07:55:54.355Z,4.25
2022-09-16T07:58:40.738Z,3.90
2022-09-16T08:01:26.304Z,3.03
2022-09-16T08:04:12.369Z,2.75
2022-09-16T08:06:57.682Z,3.55
2022-09-16T08:09:48.561Z,3.45
2022-09-16T08:12:36.325Z,2.35
2022-09-16T08:15:21.944Z,9.25
2022-09-16T08:18:07.101Z,5.00
2022-09-16T08:20:52.665Z,3.50
2022-09-16T08:23:39.140Z,5.90
2022-09-16T08:26:25.562Z,5.10
2022-09-16T08:29:11.267Z,4.47
2022-09-16T08:31:56.668Z,3.70
2022-09-16T08:34:42.195Z,3.58
2022-09-16T08:37:27.960Z,4.07
2022-09-16T08:43:25.947Z,3.33
2022-09-16T08:46:25.607Z,3.13
2022-09-16T08:52:27.411Z,6.05
2022-09-16T08:55:31.717Z,4.40
2022-09-16T08:58:20.632Z,3.20
2022-09-16T09:01:23.118Z,5.00
2022-09-16T09:04:08.466Z,4.20
2022-09-16T09:07:02.113Z,5.00
2022-09-16T09:10:10.821Z,4.88
2022-09-16T09:13:09.520Z,4.32
2022-09-16T09:16:08.244Z,2.85
2022-09-16T09:19:19.469Z,2.10
2022-09-16T09:22:27.044Z,1.63
2022-09-16T09:25:49.028Z,3.58
2022-09-16T09:29:04.366Z,3.13
2022-09-16T09:32:10.596Z,3.92
2022-09-16T09:35:20.910Z,4.82
2022-09-16T09:38:50.297Z,4.43
2022-09-16T09:41:51.181Z,2.70
2022-09-16T09:44:51.780Z,2.67
2022-09-16T09:47:51.024Z,3.22
2022-09-16T09:50:48.037Z,3.10
2022-09-16T09:53:38.110Z,4.88
2022-09-16T09:56:31.659Z,3.20
2022-09-16T09:59:28.781Z,4.35
2022-09-16T10:02:19.341Z,5.65
2022-09-16T10:05:07.154Z,4.13
2022-09-16T10:08:03.527Z,5.28
2022-09-16T10:10:52.559Z,4.68
2022-09-16T10:13:48.811Z,3.78
2022-09-16T10:16:39.644Z,3.17
2022-09-16T10:19:27.768Z,1.63
2022-09-16T10:22:27.524Z,2.13
2022-09-16T10:25:26.663Z,1.92
2022-09-16T10:28:26.238Z,1.88
2022-09-16T10:31:12.018Z,2.08
2022-09-16T10:33:59.563Z,1.95
2022-09-16T10:36:46.074Z,1.98
2022-09-16T10:39:32.424Z,3.95
2022-09-16T10:42:26.002Z,2.55
2022-09-16T10:45:29.484Z,2.13
2022-09-16T10:48:19.059Z,6.70
2022-09-16T10:51:15.924Z,5.68
2022-09-16T10:54:05.140Z,7.57
2022-09-16T10:56:51.957Z,7.45
2022-09-16T10:59:36.947Z,5.97
2022-09-16T11:02:46.703Z,5.88
2022-09-16T11:05:50.750Z,9.75
2022-09-16T11:08:53.335Z,9.23
2022-09-16T11:11:47.985Z,5.15
2022-09-16T11:14:36.080Z,6.40
2022-09-16T11:17:54.641Z,4.80
2022-09-16T11:20:45.832Z,5.70
2022-09-16T11:24:01.520Z,5.22
2022-09-16T11:27:24.134Z,9.52
2022-09-16T11:30:19.230Z,6.22
2022-09-16T11:33:22.435Z,5.00
2022-09-16T11:36:19.005Z,6.68
2022-09-16T11:39:42.072Z,4.65
2022-09-16T11:42:46.727Z,5.22
2022-09-16T11:45:39.961Z,4.80
2022-09-16T11:48:30.887Z,9.02
2022-09-16T11:51:34.831Z,8.85
2022-09-16T11:54:26.204Z,6.90
2022-09-16T11:57:18.334Z,6.53
2022-09-16T12:00:10.652Z,10.07
2022-09-16T12:03:10.460Z,10.68
2022-09-16T12:06:11.360Z,10.93
2022-09-16T12:09:03.077Z,4.72
2022-09-16T12:12:02.417Z,6.38
2022-09-16T12:15:03.305Z,5.60
2022-09-16T12:17:58.984Z,7.03
2022-09-16T12:20:51.761Z,6.97
2022-09-16T12:24:01.702Z,5.75
2022-09-16T12:27:12.941Z,4.13
2022-09-16T12:30:03.156Z,7.18
2022-09-16T12:33:02.745Z,4.95
2022-09-16T12:35:57.531Z,5.95
2022-09-16T12:38:42.625Z,8.88
2022-09-16T12:42:10.429Z,5.45
2022-09-16T12:45:22.029Z,9.68
2022-09-16T12:48:38.416Z,8.80
2022-09-16T12:51:32.839Z,6.50
2022-09-16T12:55:07.817Z,4.97
2022-09-16T12:58:23.011Z,7.35
2022-09-16T13:01:35.262Z,8.05
2022-09-16T13:04:29.469Z,7.40
2022-09-16T13:07:28.487Z,5.47
2022-09-16T13:10:54.603Z,5.00
2022-09-16T13:13:45.965Z,6.10
2022-09-16T13:16:36.907Z,5.80
2022-09-16T13:19:27.053Z,5.80
2022-09-16T13:22:20.479Z,4.65
2022-09-16T13:25:11.107Z,8.65
2022-09-16T13:28:02.604Z,7.40
2022-09-16T13:30:48.702Z,7.15
2022-09-16T13:33:34.154Z,7.88
2022-09-16T13:36:19.809Z,7.13
2022-09-16T13:39:11.811Z,5.78
2022-09-16T13:41:57.958Z,3.65
2022-09-16T13:44:43.133Z,10.82
2022-09-16T13:47:40.146Z,5.28
2022-09-16T13:50:26.348Z,6.45
2022-09-16T13:53:21.088Z,7.22
2022-09-16T13:56:21.095Z,9.60
2022-09-16T13:59:24.052Z,5.10
2022-09-16T14:02:31.119Z,5.63
2022-09-16T14:05:38.359Z,3.90
2022-09-16T14:08:56.507Z,10.68
2022-09-16T14:12:04.190Z,8.52
2022-09-16T14:14:50.042Z,7.75
2022-09-16T14:17:45.649Z,9.50
2022-09-16T14:20:35.147Z,9.52
2022-09-16T14:23:20.848Z,8.18
2022-09-16T14:26:22.118Z,11.38
2022-09-16T14:29:11.381Z,7.63
2022-09-16T14:31:57.441Z,10.98
2022-09-16T14:34:42.990Z,8.88
2022-09-16T14:37:31.326Z,8.82
2022-09-16T14:40:20.635Z,8.15
2022-09-16T14:43:08.989Z,7.53
2022-09-16T14:48:49.235Z,9.02
2022-09-16T14:51:35.702Z,11.00
2022-09-16T14:54:22.971Z,6.20
2022-09-16T14:57:16.964Z,9.10
2022-09-16T15:00:11.848Z,5.40
2022-09-16T15:03:27.750Z,5.07
2022-09-16T15:06:22.796Z,5.40
2022-09-16T15:09:18.889Z,7.70
2022-09-16T15:12:04.744Z,5.78
2022-09-16T15:14:51.002Z,5.13
2022-09-16T15:17:36.412Z,5.70
2022-09-16T15:20:24.216Z,7.18
2022-09-16T15:23:25.233Z,4.75
2022-09-16T15:26:22.749Z,7.70
2022-09-16T15:29:26.979Z,5.32
2022-09-16T15:32:19.632Z,9.60
2022-09-16T15:37:56.934Z,8.07
2022-09-16T15:40:42.227Z,10.57
2022-09-16T15:43:30.889Z,9.40
2022-09-16T15:46:21.829Z,12.23
2022-09-16T15:49:14.575Z,6.28
2022-09-16T15:52:08.209Z,5.88
2022-09-16T15:55:00.753Z,8.25
2022-09-16T15:57:46.448Z,11.93
2022-09-16T16:01:10.455Z,7.20
2022-09-16T16:04:04.006Z,8.23
2022-09-16T16:06:59.185Z,7.35
2022-09-16T16:09:44.189Z,7.68
2022-09-16T16:12:29.656Z,8.35
2022-09-16T16:15:17.416Z,9.32
2022-09-16T16:18:06.059Z,13.05
2022-09-16T16:20:51.677Z,9.70
2022-09-16T16:23:37.719Z,9.93
2022-09-16T16:26:22.736Z,10.57
2022-09-16T16:29:08.188Z,9.52
2022-09-16T16:31:59.501Z,6.88
2022-09-16T16:34:47.693Z,12.68
2022-09-16T16:37:48.136Z,12.23
2022-09-16T16:40:33.478Z,9.18
2022-09-16T16:43:18.588Z,9.88
2022-09-16T16:46:04.332Z,8.77
2022-09-16T16:48:50.050Z,10.60
2022-09-16T16:51:35.496Z,7.32
2022-09-16T16:54:21.791Z,10.90
2022-09-16T16:57:07.721Z,9.00
2022-09-16T16:59:54.700Z,9.00
2022-09-16T17:02:40.659Z,9.13
2022-09-16T17:05:25.769Z,9.15
2022-09-16T17:08:11.519Z,10.00
2022-09-16T17:11:11.346Z,9.13
2022-09-16T17:14:06.002Z,11.18
2022-09-16T17:16:52.003Z,7.72
2022-09-16T17:19:37.602Z,7.47
2022-09-16T17:22:22.789Z,9.82
2022-09-16T17:25:08.594Z,6.72
2022-09-16T17:27:53.901Z,7.85
2022-09-16T17:30:43.661Z,12.02
2022-09-16T17:33:29.266Z,9.07
2022-09-16T17:36:18.306Z,9.40
2022-09-16T17:39:07.121Z,10.30
2022-09-16T17:41:54.312Z,8.48
2022-09-16T17:44:39.625Z,7.22
2022-09-16T17:47:25.648Z,10.00
2022-09-16T17:50:10.620Z,6.88
2022-09-16T17:52:56.103Z,6.80
2022-09-16T17:55:41.404Z,6.40
2022-09-16T17:58:26.861Z,9.40
2022-09-16T18:01:15.028Z,8.88
2022-09-16T18:04:01.614Z,10.23
2022-09-16T18:06:47.773Z,9.40
2022-09-16T18:09:32.929Z,7.97
2022-09-16T18:12:18.328Z,8.70
2022-09-16T18:15:04.836Z,8.35
2022-09-16T18:17:50.573Z,9.77
2022-09-16T18:20:35.799Z,7.45
2022-09-16T18:23:21.167Z,6.40
2022-09-16T18:26:09.056Z,7.82
2022-09-16T18:29:12.382Z,6.60
2022-09-16T18:31:58.273Z,6.82
2022-09-16T18:34:43.570Z,7.72
2022-09-16T18:37:29.320Z,5.55
2022-09-16T18:40:15.664Z,9.82
2022-09-16T18:43:01.061Z,7.88
2022-09-16T18:45:46.726Z,6.18
2022-09-16T18:48:31.921Z,5.25
2022-09-16T18:51:21.081Z,7.95
2022-09-16T18:54:15.126Z,6.45
2022-09-16T18:57:01.840Z,11.80
2022-09-16T18:59:47.136Z,5.18
2022-09-16T19:02:32.656Z,7.45
2022-09-16T19:05:19.233Z,5.38
2022-09-16T19:08:04.160Z,4.70
2022-09-16T19:10:50.013Z,5.10
2022-09-16T19:13:35.633Z,7.55
2022-09-16T19:16:21.744Z,5.10
2022-09-16T19:19:08.936Z,12.48
2022-09-16T19:21:54.334Z,9.75
2022-09-16T19:24:39.832Z,6.68
2022-09-16T19:27:25.388Z,9.00
2022-09-16T19:30:11.276Z,7.90
2022-09-16T19:32:57.059Z,7.95
2022-09-16T19:35:42.834Z,8.85
2022-09-16T19:38:28.905Z,8.15
2022-09-16T19:41:15.357Z,8.98
2022-09-16T19:44:03.728Z,6.07
2022-09-16T19:46:49.863Z,6.88
2022-09-16T19:49:35.481Z,6.68
2022-09-16T19:52:20.883Z,7.30
2022-09-16T19:55:08.301Z,6.53
2022-09-16T19:57:53.570Z,7.32
2022-09-16T20:00:58.549Z,7.28
2022-09-16T20:03:44.740Z,5.00
2022-09-16T20:06:36.339Z,6.10
2022-09-16T20:09:21.577Z,6.32
2022-09-16T20:12:07.107Z,5.47
2022-09-16T20:14:52.446Z,8.15
2022-09-16T20:17:38.870Z,6.65
2022-09-16T20:20:24.548Z,5.28
2022-09-16T20:23:09.888Z,15.38
2022-09-16T20:25:57.145Z,13.07
2022-09-16T20:28:43.529Z,9.60
2022-09-16T20:31:32.227Z,8.30
2022-09-16T20:34:17.617Z,13.50
2022-09-16T20:37:03.504Z,8.30
2022-09-16T20:39:48.942Z,7.90
2022-09-16T20:42:34.393Z,9.10
2022-09-16T20:45:19.658Z,7.75
2022-09-16T20:48:05.380Z,8.18
2022-09-16T20:50:50.491Z,9.65
2022-09-16T20:53:37.313Z,18.17
2022-09-16T20:56:22.767Z,7.20
2022-09-16T20:59:10.135Z,10.32
2022-09-16T21:01:56.389Z,10.45
2022-09-16T21:04:41.848Z,9.80
2022-09-16T21:07:28.284Z,11.43
2022-09-16T21:10:13.382Z,13.07
2022-09-16T21:12:59.196Z,9.13
2022-09-16T21:15:54.031Z,7.05
2022-09-16T21:18:39.674Z,8.10
2022-09-16T21:21:26.152Z,9.48
2022-09-16T21:24:11.915Z,12.68
2022-09-16T21:26:57.317Z,14.07
2022-09-16T21:29:43.263Z,12.02
2022-09-16T21:32:28.637Z,11.88
2022-09-16T21:35:14.373Z,16.20
2022-09-16T21:38:00.075Z,14.90
2022-09-16T21:40:46.791Z,13.70
2022-09-16T21:43:35.377Z,16.55
2022-09-16T21:46:31.635Z,9.13
2022-09-16T21:49:25.419Z,8.35
2022-09-16T21:52:10.917Z,13.52
2022-09-16T21:54:55.986Z,10.13
2022-09-16T21:57:41.570Z,14.30
2022-09-16T22:00:26.879Z,16.75
2022-09-16T22:03:12.326Z,16.30
2022-09-16T22:06:00.890Z,16.58
2022-09-16T22:08:49.144Z,11.45
2022-09-16T22:11:37.513Z,11.40
2022-09-16T22:14:23.744Z,13.80
2022-09-16T22:17:09.027Z,11.43
2022-09-16T22:19:54.969Z,14.48
2022-09-16T22:22:40.304Z,17.65
2022-09-16T22:25:25.878Z,10.73
2022-09-16T22:28:11.160Z,11.98
2022-09-16T22:31:08.447Z,9.30
2022-09-16T22:33:55.621Z,15.18
2022-09-16T22:36:41.577Z,14.75
2022-09-16T22:39:26.521Z,13.10
2022-09-16T22:42:11.940Z,9.73
2022-09-16T22:44:57.315Z,12.82
2022-09-16T22:47:42.928Z,11.88
2022-09-16T22:50:28.200Z,11.30
2022-09-16T22:53:13.618Z,9.30
2022-09-16T22:56:01.676Z,15.13
2022-09-16T22:58:51.311Z,17.17
2022-09-16T23:01:40.127Z,13.13
2022-09-16T23:04:27.361Z,11.32
2022-09-16T23:07:13.326Z,11.30
2022-09-16T23:09:59.014Z,10.55
2022-09-16T23:12:44.489Z,10.55
2022-09-16T23:15:30.212Z,9.32
2022-09-16T23:18:18.676Z,9.35
2022-09-16T23:21:07.044Z,8.55
2022-09-16T23:23:56.015Z,11.65
2022-09-16T23:26:41.637Z,8.30
2022-09-16T23:29:27.131Z,12.25
2022-09-16T23:32:12.531Z,14.13
2022-09-16T23:34:58.065Z,15.52
2022-09-16T23:37:43.340Z,11.48
2022-09-16T23:40:31.652Z,9.65
2022-09-16T23:43:17.265Z,15.45
2022-09-16T23:46:03.154Z,11.10
2022-09-16T23:48:52.533Z,7.93
2022-09-16T23:51:37.909Z,7.78
2022-09-16T23:54:23.719Z,8.82
2022-09-16T23:57:09.208Z,7.70
2022-09-16T23:59:55.809Z,10.60
